createdAt,value
2019-01-05T00:02:17.830Z,133.87
2019-01-05T00:04:47.785Z,115.17
2019-01-05T00:07:34.947Z,114.03
2019-01-05T00:10:05.349Z,84.23
2019-01-05T00:12:32.838Z,90.43
2019-01-05T00:15:17.974Z,85.35
2019-01-05T00:17:49.397Z,78.73
2019-01-05T00:20:16.871Z,80.13
2019-01-05T00:23:01.112Z,90.85
2019-01-05T00:25:45.358Z,78.23
2019-01-05T00:28:28.633Z,75.57
2019-01-05T00:31:07.827Z,87.77
2019-01-05T00:33:50.160Z,81.90
2019-01-05T00:36:23.238Z,90.53
2019-01-05T00:38:53.189Z,87.30
2019-01-05T00:41:36.301Z,81.90
2019-01-05T00:44:09.308Z,78.30
2019-01-05T00:46:53.544Z,91.30
2019-01-05T00:49:23.369Z,81.20
2019-01-05T00:51:52.672Z,77.30
2019-01-05T00:54:20.973Z,94.43
2019-01-05T00:56:48.451Z,90.87
2019-01-05T00:59:32.586Z,86.50
2019-01-05T01:02:16.885Z,89.30
2019-01-05T01:04:47.922Z,66.30
2019-01-05T01:07:20.995Z,71.37
2019-01-05T01:10:03.372Z,58.30
2019-01-05T01:12:32.747Z,57.80
2019-01-05T01:15:06.047Z,69.17
2019-01-05T01:17:34.745Z,72.47
2019-01-05T01:20:07.599Z,67.50
2019-01-05T01:22:50.166Z,57.97
2019-01-05T01:25:23.184Z,57.33
2019-01-05T01:27:56.437Z,49.13
2019-01-05T01:30:29.560Z,49.15
2019-01-05T01:33:02.612Z,37.15
2019-01-05T01:35:40.132Z,43.97
2019-01-05T01:38:30.469Z,44.90
2019-01-05T01:41:08.770Z,37.97
2019-01-05T01:43:41.882Z,38.33
2019-01-05T01:46:13.905Z,40.87
2019-01-05T01:48:57.124Z,39.07
2019-01-05T01:51:25.249Z,30.47
2019-01-05T01:53:58.228Z,35.88
2019-01-05T01:56:37.506Z,30.33
2019-01-05T01:59:06.858Z,29.40
2019-01-05T02:01:39.809Z,28.33
2019-01-05T02:04:23.052Z,25.43
2019-01-05T02:07:06.275Z,27.30
2019-01-05T02:09:50.410Z,28.20
2019-01-05T02:12:35.516Z,30.60
2019-01-05T02:15:09.363Z,27.07
2019-01-05T02:17:37.810Z,26.23
2019-01-05T02:20:13.549Z,24.50
2019-01-05T02:22:45.290Z,25.10
2019-01-05T02:25:20.543Z,30.85
2019-01-05T02:28:19.203Z,27.27
2019-01-05T02:30:53.155Z,26.75
2019-01-05T02:33:42.773Z,23.87
2019-01-05T02:36:16.997Z,26.80
2019-01-05T02:39:00.952Z,27.45
2019-01-05T02:41:38.123Z,21.87
2019-01-05T02:47:28.175Z,28.80
2019-01-05T02:50:22.760Z,25.60
2019-01-05T02:53:12.374Z,26.20
2019-01-05T02:55:51.355Z,29.00
2019-01-05T02:58:50.003Z,28.20
2019-01-05T03:01:51.018Z,24.95
2019-01-05T03:04:27.381Z,29.48
2019-01-05T03:07:18.847Z,29.63
2019-01-05T03:10:10.610Z,33.27
2019-01-05T03:12:46.566Z,26.43
2019-01-05T03:15:33.540Z,26.10
2019-01-05T03:18:23.909Z,25.93
2019-01-05T03:21:10.177Z,30.23
2019-01-05T03:23:51.689Z,30.67
2019-01-05T03:26:47.735Z,27.83
2019-01-05T03:29:23.114Z,31.73
2019-01-05T03:32:21.212Z,32.60
2019-01-05T03:35:29.967Z,29.50
2019-01-05T03:38:05.212Z,27.00
2019-01-05T03:40:55.206Z,29.67
2019-01-05T03:43:43.808Z,36.53
2019-01-05T03:46:51.535Z,32.47
2019-01-05T03:49:49.222Z,31.17
2019-01-05T03:52:24.480Z,32.43
2019-01-05T03:55:02.555Z,32.15
2019-01-05T03:57:35.673Z,39.83
2019-01-05T04:00:19.754Z,30.77
2019-01-05T04:02:59.849Z,34.63
2019-01-05T04:05:29.167Z,30.17
2019-01-05T04:08:23.294Z,33.47
2019-01-05T04:10:56.520Z,24.60
2019-01-05T04:14:00.245Z,32.60
2019-01-05T04:16:49.691Z,30.43
2019-01-05T04:19:37.742Z,36.05
2019-01-05T04:25:18.530Z,38.60
2019-01-05T04:28:16.452Z,33.73
2019-01-05T04:34:12.911Z,38.90
2019-01-05T04:37:06.487Z,34.23
2019-01-05T04:39:40.590Z,32.10
2019-01-05T04:42:12.126Z,31.87
2019-01-05T04:45:04.320Z,29.33
2019-01-05T04:47:40.998Z,28.63
2019-01-05T04:50:31.996Z,21.67
2019-01-05T04:53:39.515Z,28.30
2019-01-05T04:56:17.422Z,35.60
2019-01-05T04:59:06.054Z,25.12
2019-01-05T05:01:53.041Z,33.23
2019-01-05T05:04:40.717Z,37.57
2019-01-05T05:07:35.405Z,32.57
2019-01-05T05:10:34.339Z,36.17
2019-01-05T05:13:26.775Z,30.37
2019-01-05T05:16:06.998Z,27.70
2019-01-05T05:18:54.000Z,30.70
2019-01-05T05:21:47.152Z,31.27
2019-01-05T05:24:34.468Z,35.43
2019-01-05T05:27:21.451Z,32.33
2019-01-05T05:30:13.425Z,37.55
2019-01-05T05:33:04.001Z,34.70
2019-01-05T05:35:52.008Z,36.13
2019-01-05T05:38:43.954Z,36.55
2019-01-05T05:41:30.103Z,34.93
2019-01-05T05:44:08.079Z,36.97
2019-01-05T05:47:18.783Z,38.63
2019-01-05T05:49:54.847Z,35.78
2019-01-05T05:53:02.639Z,40.37
2019-01-05T05:55:52.569Z,39.90
2019-01-05T05:58:42.191Z,29.53
2019-01-05T06:01:35.275Z,38.70
